Terminal Aerodrome Forecast
Issued by NWS

Home | Current Version | Previous Version | Text Only | Print | Product List | Glossary On
Versions: 1 2 3 4 5 6 7 8 9 10 11 12
000
FTUS45 KSLC 282340
TAFEVW
TAF
KEVW 282340Z 2900/2924 11009KT P6SM FEW100 SCT200
     FM290200 16006KT P6SM SCT080 BKN120
     FM291800 22011G18KT P6SM SCT060 BKN100=

USA.gov is the U.S. government's official web portal to all federal, state and local government web resources and services.